^^
Datos históricos de la estación: Murcia-Puente Tocinos
Diario Informe para Junio 11, 2019 Unidades:  Métrico    Ingés   Ambas
Diario Semanal Mensual Anual
  Máxima: Mínima: Promedio:
Temperatura: 34.2 °C 22.3 °C 27.6 °C
Punto de rocio: 20.3 °C 12.8 °C 16.3 °C
Humedad: 79% 29% 54%
Velocidad viento: 18km/h 0km/h 7.7km/h
Racha viento: 29.6km/h - -
Viento- - ESE
Presión: 1013.7 hPa 1011.3 hPa -
Precipitación: 0.0 mm    
 
 
Tabla de datos para Junio 11, 2019
Hora Temperatura Punto de rocio Presión Viento Velocidad viento Racha viento Humedad Intensidad lluvia(por hora) Nubes
00:04 24.8 °C 20.1 °C 1013.1 hPa NNE 5 km/h 9.3 km/h 75% 0.0 mm
00:09 24.7 °C 19.9 °C 1013.1 hPa NE 5 km/h 9.3 km/h 75% 0.0 mm
00:14 24.7 °C 20.2 °C 1013.1 hPa ENE 5 km/h 9.3 km/h 76% 0.0 mm
00:19 24.6 °C 20.1 °C 1013.1 hPa North 5.8 km/h 7.4 km/h 76% 0.0 mm
00:24 24.6 °C 20.1 °C 1013.1 hPa Este 5.8 km/h 7.4 km/h 76% 0.0 mm
00:29 24.6 °C 20.1 °C 1013.1 hPa NE 3.2 km/h 7.4 km/h 76% 0.0 mm
00:34 24.6 °C 20.1 °C 1013.1 hPa Este 3.2 km/h 5.6 km/h 76% 0.0 mm
00:39 24.6 °C 20.1 °C 1013.1 hPa Este 3.2 km/h 5.6 km/h 76% 0.0 mm
00:44 24.6 °C 20.3 °C 1013.1 hPa ESE 3.2 km/h 5.6 km/h 77% 0.0 mm
00:49 24.5 °C 20.2 °C 1013.3 hPa ESE 3.2 km/h 3.7 km/h 77% 0.0 mm
00:54 24.5 °C 20 °C 1013.3 hPa ESE 3.2 km/h 3.9 km/h 76% 0.0 mm
00:59 24.4 °C 19.9 °C 1013.3 hPa NNO 2.9 km/h 3.7 km/h 76% 0.0 mm
01:04 24.4 °C 19.9 °C 1013.3 hPa NNO 2.9 km/h 7.4 km/h 76% 0.0 mm
01:09 24.4 °C 20.1 °C 1013.3 hPa NNO 3.2 km/h 5.6 km/h 77% 0.0 mm
01:14 24.4 °C 20.1 °C 1013.3 hPa NNO 3.2 km/h   77% 0.0 mm
01:19 24.3 °C 20 °C 1013.4 hPa NO 2.3 km/h 3.7 km/h 77% 0.0 mm
01:24 24.3 °C 20 °C 1013.4 hPa ONO 2.3 km/h 5.6 km/h 77% 0.0 mm
01:29 24.2 °C 20.1 °C 1013.4 hPa ONO 3.2 km/h 5 km/h 78% 0.0 mm
01:34 24.2 °C 20.1 °C 1013.5 hPa ONO 3.2 km/h 3.7 km/h 78% 0.0 mm
01:39 24.2 °C 20.1 °C 1013.5 hPa ONO 2.3 km/h 3.7 km/h 78% 0.0 mm
01:44 24.2 °C 20.1 °C 1013.5 hPa NO 2.3 km/h 5 km/h 78% 0.0 mm
01:49 24.2 °C 20.1 °C 1013.5 hPa NNO 2.3 km/h 5.6 km/h 78% 0.0 mm
01:54 24.2 °C 20.1 °C 1013.5 hPa North 2.3 km/h 5.6 km/h 78% 0.0 mm
01:59 24.2 °C 20.1 °C 1013.5 hPa North 3.2 km/h 3.7 km/h 78% 0.0 mm
02:04 24.2 °C 20.3 °C 1013.3 hPa NNE 3.2 km/h 3.7 km/h 79% 0.0 mm
02:09 24.1 °C 20.2 °C 1013.3 hPa NNE 2.3 km/h   79% 0.0 mm
02:14 24.1 °C 19.8 °C 1013.3 hPa Este 2.3 km/h 7.4 km/h 77% 0.0 mm
02:19 23.9 °C 19.4 °C 1013.3 hPa ESE 3.2 km/h 5.6 km/h 76% 0.0 mm
02:24 23.8 °C 19.3 °C 1013.3 hPa ESE 3.2 km/h   76% 0.0 mm
02:29 23.8 °C 19.3 °C 1013.3 hPa Calm     76% 0.0 mm
02:34 23.7 °C 19 °C 1013.2 hPa Calm   7.4 km/h 75% 0.0 mm
02:39 23.7 °C 19 °C 1013.2 hPa SE 3.2 km/h 3.7 km/h 75% 0.0 mm
02:44 23.7 °C 19 °C 1013.2 hPa SE 3.2 km/h   75% 0.0 mm
02:49 23.6 °C 18.9 °C 1013.3 hPa Calm     75% 0.0 mm
02:54 23.6 °C 19.1 °C 1013.3 hPa Calm     76% 0.0 mm
02:59 23.6 °C 19.1 °C 1013.3 hPa Calm     76% 0.0 mm
03:04 23.6 °C 19.1 °C 1013.3 hPa Calm     76% 0.0 mm
03:09 23.6 °C 19.1 °C 1013.3 hPa Calm     76% 0.0 mm
03:14 23.6 °C 18.7 °C 1013.3 hPa Calm     74% 0.0 mm
03:19 23.5 °C 18.6 °C 1013.2 hPa Calm   3.7 km/h 74% 0.0 mm
03:24 23.4 °C 18.3 °C 1013.2 hPa Calm   5.6 km/h 73% 0.0 mm
03:29 23.4 °C 18.3 °C 1013.2 hPa ESE 2.3 km/h 3.9 km/h 73% 0.0 mm
03:34 23.4 °C 18.3 °C 1013.2 hPa ESE 2.3 km/h 5.6 km/h 73% 0.0 mm
03:39 23.4 °C 18.1 °C 1013.2 hPa ESE 3.2 km/h 5 km/h 72% 0.0 mm
03:44 23.3 °C 17.9 °C 1013.2 hPa ESE 3.2 km/h   72% 0.0 mm
03:49 23.3 °C 17.9 °C 1013.1 hPa ESE 2.3 km/h   72% 0.0 mm
03:54 23.3 °C 17.9 °C 1013.1 hPa ESE 2.3 km/h 3.9 km/h 72% 0.0 mm
03:59 23.3 °C 17.7 °C 1013.1 hPa ESE 2.9 km/h 5.6 km/h 71% 0.0 mm
04:04 23.3 °C 17.7 °C 1012.9 hPa ESE 2.9 km/h 4.7 km/h 71% 0.0 mm
04:09 23.3 °C 17.7 °C 1012.9 hPa ESE 2.3 km/h 1.9 km/h 71% 0.0 mm
04:14 23.3 °C 17.5 °C 1012.9 hPa ESE 2.3 km/h   70% 0.0 mm
04:19 23.3 °C 17.5 °C 1012.8 hPa Calm     70% 0.0 mm
04:24 23.2 °C 17.7 °C 1012.8 hPa Calm     71% 0.0 mm
04:29 23.2 °C 18.5 °C 1012.8 hPa Calm     75% 0.0 mm
04:34 23.2 °C 18.3 °C 1012.9 hPa Calm     74% 0.0 mm
04:39 23.1 °C 18.2 °C 1012.9 hPa Calm     74% 0.0 mm
04:44 22.9 °C 18 °C 1012.9 hPa Calm     74% 0.0 mm
04:49 22.9 °C 18.4 °C 1012.8 hPa Calm     76% 0.0 mm
04:54 22.9 °C 18.7 °C 1012.8 hPa Calm     77% 0.0 mm
04:59 22.8 °C 18.1 °C 1012.8 hPa Calm     75% 0.0 mm
05:04 22.7 °C 17.4 °C 1012.9 hPa Calm   3.9 km/h 72% 0.0 mm
05:09 22.7 °C 17.2 °C 1012.9 hPa SE 2.9 km/h 5.6 km/h 71% 0.0 mm
05:14 22.7 °C 17.4 °C 1012.9 hPa SE 2.9 km/h 3.9 km/h 72% 0.0 mm
05:19 22.8 °C 17.3 °C 1012.8 hPa SE 3.2 km/h 1.9 km/h 71% 0.0 mm
05:24 22.8 °C 17.7 °C 1012.8 hPa ENE 3.2 km/h 3.7 km/h 73% 0.0 mm
05:29 22.8 °C 18.1 °C 1012.8 hPa Este 2.3 km/h   75% 0.0 mm
05:34 22.8 °C 18.3 °C 1012.8 hPa Este 2.3 km/h   76% 0.0 mm
05:39 22.8 °C 18.3 °C 1012.8 hPa Calm   1.9 km/h 76% 0.0 mm
05:44 22.8 °C 18.3 °C 1012.8 hPa Calm   3.7 km/h 76% 0.0 mm
05:49 22.7 °C 17.6 °C 1012.8 hPa Calm   5.6 km/h 73% 0.0 mm
05:54 22.7 °C 17.6 °C 1012.8 hPa Calm   3.7 km/h 73% 0.0 mm
05:59 22.7 °C 17.6 °C 1012.8 hPa Sur 3.2 km/h 5.6 km/h 73% 0.0 mm
06:04 22.7 °C 17.6 °C 1012.8 hPa SSO 3.2 km/h 3.7 km/h 73% 0.0 mm
06:09 22.7 °C 17.6 °C 1012.8 hPa SSO 2.9 km/h 4.7 km/h 73% 0.0 mm
06:14 22.7 °C 17.4 °C 1012.8 hPa SO 2.9 km/h 5.6 km/h 72% 0.0 mm
06:19 22.7 °C 17.6 °C 1012.9 hPa SSO 4.7 km/h 7.4 km/h 73% 0.0 mm
06:24 22.7 °C 17.6 °C 1012.9 hPa SSO 4.7 km/h 3.7 km/h 73% 0.0 mm
06:29 22.7 °C 17.6 °C 1012.9 hPa Sur 3.9 km/h 3.9 km/h 73% 0.0 mm
06:34 22.7 °C 17.4 °C 1013.0 hPa Sur 3.9 km/h 9.3 km/h 72% 0.0 mm
06:39 22.6 °C 17.3 °C 1013.0 hPa SO 4.7 km/h 5.6 km/h 72% 0.0 mm
06:44 22.6 °C 17.3 °C 1013.0 hPa SO 4.7 km/h 3.7 km/h 72% 0.0 mm
06:49 22.5 °C 17.2 °C 1013.0 hPa Sur 2.9 km/h 7.4 km/h 72% 0.0 mm
06:54 22.5 °C 17.2 °C 1013.0 hPa SSO 2.9 km/h 9.3 km/h 72% 0.0 mm
06:59 22.4 °C 17.1 °C 1013.0 hPa SSO 5.8 km/h 9.3 km/h 72% 0.0 mm
07:04 22.4 °C 17.1 °C 1013.0 hPa SO 5.8 km/h 3.7 km/h 72% 0.0 mm
07:09 22.4 °C 17.1 °C 1013.0 hPa SO 4.7 km/h 7.4 km/h 72% 0.0 mm
07:14 22.4 °C 17.1 °C 1013.0 hPa OSO 4.7 km/h 7.4 km/h 72% 0.0 mm
07:19 22.3 °C 17 °C 1013.1 hPa SO 5.8 km/h 7.4 km/h 72% 0.0 mm
07:24 22.4 °C 17.1 °C 1013.1 hPa OSO 5.8 km/h 7.4 km/h 72% 0.0 mm
07:29 22.4 °C 16.9 °C 1013.1 hPa SO 5 km/h 9.3 km/h 71% 0.0 mm
07:34 22.4 °C 16.9 °C 1013.3 hPa OSO 5 km/h 7.4 km/h 71% 0.0 mm
07:39 22.5 °C 16.8 °C 1013.3 hPa SSO 5 km/h 9.3 km/h 70% 0.0 mm
07:44 22.5 °C 16.8 °C 1013.3 hPa Sur 5 km/h 7.4 km/h 70% 0.0 mm
07:49 22.6 °C 16.8 °C 1013.3 hPa SSO 5 km/h 7.6 km/h 70% 0.0 mm
07:54 22.6 °C 16.6 °C 1013.3 hPa SSO 5 km/h 9.3 km/h 69% 0.0 mm
07:59 22.7 °C 16.7 °C 1013.3 hPa Sur 6.4 km/h 9.3 km/h 69% 0.0 mm
08:04 22.7 °C 16.7 °C 1013.3 hPa Sur 6.4 km/h 9.3 km/h 69% 0.0 mm
08:09 22.8 °C 16.8 °C 1013.3 hPa Sur 6.9 km/h 9.3 km/h 69% 0.0 mm
08:14 22.8 °C 16.8 °C 1013.3 hPa SSO 6.9 km/h 11.1 km/h 69% 0.0 mm
08:19 22.9 °C 16.9 °C 1013.4 hPa SSO 7.6 km/h 9.3 km/h 69% 0.0 mm
08:24 23 °C 16.8 °C 1013.4 hPa SSE 7.6 km/h 11.1 km/h 68% 0.0 mm
08:29 23.2 °C 16.9 °C 1013.4 hPa OSO 6.9 km/h 10.3 km/h 68% 0.0 mm
08:34 23.3 °C 17.1 °C 1013.4 hPa OSO 6.9 km/h 9.5 km/h 68% 0.0 mm
08:39 23.4 °C 16.9 °C 1013.4 hPa SSO 6.9 km/h 11.1 km/h 67% 0.0 mm
08:44 23.6 °C 17.1 °C 1013.4 hPa Sur 6.9 km/h 9.3 km/h 67% 0.0 mm
08:49 23.6 °C 16.9 °C 1013.5 hPa SO 6.9 km/h 9.3 km/h 66% 0.0 mm
08:54 23.7 °C 16.9 °C 1013.5 hPa SSO 6.9 km/h 13 km/h 66% 0.0 mm
08:59 23.7 °C 16.9 °C 1013.5 hPa SSO 6.9 km/h 9.3 km/h 66% 0.0 mm
09:04 23.8 °C 16.8 °C 1013.6 hPa SSO 6.9 km/h 9.3 km/h 65% 0.0 mm
09:09 23.9 °C 16.9 °C 1013.6 hPa SSO 6.4 km/h 9.3 km/h 65% 0.0 mm
09:14 24 °C 16.8 °C 1013.6 hPa SSO 6.4 km/h 7.6 km/h 64% 0.0 mm
09:19 24.2 °C 16.7 °C 1013.5 hPa SO 6.4 km/h 11.1 km/h 63% 0.0 mm
09:24 24.4 °C 16.7 °C 1013.5 hPa SSO 6.4 km/h 9.3 km/h 62% 0.0 mm
09:29 24.4 °C 16.7 °C 1013.5 hPa Sur 6.9 km/h 11.1 km/h 62% 0.0 mm
09:34 24.5 °C 16.5 °C 1013.5 hPa SSO 6.9 km/h 11.1 km/h 61% 0.0 mm
09:39 24.7 °C 16.7 °C 1013.5 hPa SSO 7.6 km/h 9.5 km/h 61% 0.0 mm
09:44 24.7 °C 16.7 °C 1013.5 hPa Oeste 7.6 km/h 11.1 km/h 61% 0.0 mm
09:49 24.9 °C 16.6 °C 1013.6 hPa SSO 6.9 km/h 9.3 km/h 60% 0.0 mm
09:54 25.2 °C 16.6 °C 1013.6 hPa SO 6.9 km/h 11.1 km/h 59% 0.0 mm
09:59 25.4 °C 16.8 °C 1013.6 hPa Sur 7.6 km/h 7.6 km/h 59% 0.0 mm
10:04 25.4 °C 16.8 °C 1013.6 hPa SO 7.6 km/h 11.1 km/h 59% 0.0 mm
10:09 25.6 °C 17 °C 1013.6 hPa SSO 7.6 km/h 11.1 km/h 59% 0.0 mm
10:14 25.8 °C 16.9 °C 1013.6 hPa OSO 7.6 km/h 9.3 km/h 58% 0.0 mm
10:19 26 °C 16.8 °C 1013.6 hPa SSE 6.4 km/h 8.4 km/h 57% 0.0 mm
10:24 26.2 °C 16.7 °C 1013.6 hPa OSO 6.4 km/h 8.7 km/h 56% 0.0 mm
10:29 26.5 °C 16.7 °C 1013.6 hPa ONO 5.8 km/h 9.3 km/h 55% 0.0 mm
10:34 26.8 °C 16.4 °C 1013.4 hPa Oeste 5.8 km/h 7.4 km/h 53% 0.0 mm
10:39 26.9 °C 16.5 °C 1013.4 hPa OSO 5 km/h 7.6 km/h 53% 0.0 mm
10:44 27.1 °C 16.4 °C 1013.4 hPa OSO 5 km/h 8.4 km/h 52% 0.0 mm
10:49 27.2 °C 16.2 °C 1013.3 hPa NO 5.8 km/h 7.4 km/h 51% 0.0 mm
10:54 27.4 °C 16.4 °C 1013.3 hPa Oeste 5.8 km/h 7.4 km/h 51% 0.0 mm
10:59 27.7 °C 16.3 °C 1013.3 hPa ESE 3.9 km/h 5.6 km/h 50% 0.0 mm
11:04 28.2 °C 16.2 °C 1013.3 hPa ESE 3.9 km/h 3.7 km/h 48% 0.0 mm
11:09 28.7 °C 16.3 °C 1013.3 hPa SSO 3.2 km/h 3.7 km/h 47% 0.0 mm
11:14 28.9 °C 16.1 °C 1013.3 hPa SSO 3.2 km/h 7.4 km/h 46% 0.0 mm
11:19 29.1 °C 16.3 °C 1013.3 hPa SE 4.7 km/h 9.3 km/h 46% 0.0 mm
11:24 29.2 °C 16.1 °C 1013.3 hPa SE 4.7 km/h 11.1 km/h 45% 0.0 mm
11:29 29.2 °C 16.1 °C 1013.3 hPa SE 5.8 km/h 7.6 km/h 45% 0.0 mm
11:34 29.3 °C 15.8 °C 1013.3 hPa Sur 5.8 km/h 7.4 km/h 44% 0.0 mm
11:39 29.5 °C 14.9 °C 1013.3 hPa SSE 5.8 km/h 11.1 km/h 41% 0.0 mm
11:44 29.7 °C 15.1 °C 1013.3 hPa SO 5.8 km/h 7.4 km/h 41% 0.0 mm
11:49 29.9 °C 14.8 °C 1013.3 hPa SE 5 km/h 7.4 km/h 40% 0.0 mm
11:54 30.3 °C 14.8 °C 1013.3 hPa ENE 5 km/h 7.4 km/h 39% 0.0 mm
11:59 30.6 °C 15.1 °C 1013.3 hPa NNE 3.2 km/h 3.7 km/h 39% 0.0 mm
12:04 30.9 °C 14.1 °C 1013.2 hPa Este 3.2 km/h 13 km/h 36% 0.0 mm
12:09 30.8 °C 13.6 °C 1013.2 hPa ESE 5.8 km/h 13 km/h 35% 0.0 mm
12:14 30.9 °C 13.7 °C 1013.2 hPa SE 5.8 km/h 11.1 km/h 35% 0.0 mm
12:19 31 °C 13.7 °C 1013.1 hPa NE 5.8 km/h 7.4 km/h 35% 0.0 mm
12:24 31.2 °C 13.9 °C 1013.1 hPa NE 5.8 km/h 13 km/h 35% 0.0 mm
12:29 31.1 °C 14.3 °C 1013.1 hPa North 6.9 km/h 11.1 km/h 36% 0.0 mm
12:34 31.1 °C 14.3 °C 1013.0 hPa NNO 6.9 km/h 5.6 km/h 36% 0.0 mm
12:39 31.4 °C 14.1 °C 1013.0 hPa ENE 4.7 km/h 14.8 km/h 35% 0.0 mm
12:44 31.4 °C 13.7 °C 1013.0 hPa NNE 4.7 km/h 11.1 km/h 34% 0.0 mm
12:49 31.4 °C 13.7 °C 1013.0 hPa North 8.7 km/h 11.1 km/h 34% 0.0 mm
12:54 31.5 °C 13.7 °C 1013.0 hPa NNE 8.7 km/h 11.1 km/h 34% 0.0 mm
12:59 31.7 °C 13.4 °C 1013.0 hPa ENE 8.4 km/h 13 km/h 33% 0.0 mm
13:04 31.8 °C 13.1 °C 1013.0 hPa NE 8.4 km/h 10 km/h 32% 0.0 mm
13:09 31.9 °C 13.6 °C 1013.0 hPa NE 6.4 km/h 9.3 km/h 33% 0.0 mm
13:14 32.1 °C 12.8 °C 1013.0 hPa ONO 6.4 km/h 7.4 km/h 31% 0.0 mm
13:19 32.3 °C 13 °C 1012.8 hPa Este 5.8 km/h 11.1 km/h 31% 0.0 mm
13:24 32.6 °C 13.8 °C 1012.8 hPa NNO 5.8 km/h 11.1 km/h 32% 0.0 mm
13:29 32.7 °C 13.8 °C 1012.8 hPa NNO 5.8 km/h 7.4 km/h 32% 0.0 mm
13:34 32.9 °C 14 °C 1012.7 hPa NNE 5.8 km/h 13 km/h 32% 0.0 mm
13:39 32.9 °C 14 °C 1012.7 hPa ENE 6.9 km/h 16.7 km/h 32% 0.0 mm
13:44 32.9 °C 14 °C 1012.7 hPa NE 6.9 km/h 13 km/h 32% 0.0 mm
13:49 32.9 °C 14 °C 1012.4 hPa NNE 8.7 km/h 9.3 km/h 32% 0.0 mm
13:54 33.1 °C 14.2 °C 1012.4 hPa NNO 8.7 km/h 13 km/h 32% 0.0 mm
13:59 33.2 °C 13.8 °C 1012.4 hPa North 9.5 km/h 16.7 km/h 31% 0.0 mm
14:04 33.4 °C 12.9 °C 1012.3 hPa NO 9.5 km/h 11.1 km/h 29% 0.0 mm
14:09 33.7 °C 13.7 °C 1012.3 hPa NE 8.7 km/h 13 km/h 30% 0.0 mm
14:14 33.9 °C 13.9 °C 1012.3 hPa NNE 8.7 km/h 14.8 km/h 30% 0.0 mm
14:19 33.9 °C 13.9 °C 1012.1 hPa NE 12.2 km/h 20.4 km/h 30% 0.0 mm
14:24 33.8 °C 13.8 °C 1012.1 hPa ENE 12.2 km/h 18.5 km/h 30% 0.0 mm
14:29 33.9 °C 13.9 °C 1012.1 hPa NNE 11.9 km/h 16.7 km/h 30% 0.0 mm
14:34 34.1 °C 14.6 °C 1012.0 hPa NE 11.9 km/h 18.5 km/h 31% 0.0 mm
14:39 33.9 °C 13.9 °C 1012.0 hPa NNE 14 km/h 22.2 km/h 30% 0.0 mm
14:44 33.8 °C 14.8 °C 1012.0 hPa ENE 14 km/h 19 km/h 32% 0.0 mm
14:49 33.8 °C 14.8 °C 1011.8 hPa NNE 14 km/h 26.2 km/h 32% 0.0 mm
14:54 33.9 °C 14.9 °C 1011.8 hPa Este 14 km/h 24.1 km/h 32% 0.0 mm
14:59 34.1 °C 15.1 °C 1011.8 hPa NE 15.6 km/h 20.4 km/h 32% 0.0 mm
15:04 34.1 °C 15.6 °C 1011.6 hPa ESE 15.6 km/h 27.8 km/h 33% 0.0 mm
15:09 34.1 °C 15.6 °C 1011.6 hPa ENE 14 km/h 25.9 km/h 33% 0.0 mm
15:14 34.2 °C 15.6 °C 1011.6 hPa Este 14 km/h 29.6 km/h 33% 0.0 mm
15:19 33.9 °C 15.4 °C 1011.8 hPa Este 14.8 km/h 25.9 km/h 33% 0.0 mm
15:24 33.7 °C 15.2 °C 1011.8 hPa NE 14.8 km/h 22.2 km/h 33% 0.0 mm
15:29 33.9 °C 15.4 °C 1011.8 hPa ENE 16.1 km/h 14.8 km/h 33% 0.0 mm
15:34 33.8 °C 15.3 °C 1011.9 hPa NE 16.1 km/h 24.1 km/h 33% 0.0 mm
15:39 33.8 °C 14.8 °C 1011.9 hPa NE 13.7 km/h 22.2 km/h 32% 0.0 mm
15:44 33.8 °C 14.8 °C 1011.9 hPa NE 13.7 km/h 18.5 km/h 32% 0.0 mm
15:49 33.9 °C 14.9 °C 1011.9 hPa NNE 14 km/h 20.4 km/h 32% 0.0 mm
15:54 33.9 °C 14.9 °C 1011.9 hPa NNE 14 km/h 16.7 km/h 32% 0.0 mm
15:59 33.7 °C 14.7 °C 1011.9 hPa Este 14 km/h 18.5 km/h 32% 0.0 mm
16:04 33.8 °C 14.3 °C 1011.8 hPa Este 14 km/h 16.7 km/h 31% 0.0 mm
16:09 33.8 °C 14.8 °C 1011.8 hPa ENE 11.9 km/h 18.5 km/h 32% 0.0 mm
16:14 33.8 °C 14.3 °C 1011.8 hPa ENE 11.9 km/h 16.7 km/h 31% 0.0 mm
16:19 33.8 °C 14.8 °C 1011.8 hPa ESE 11.1 km/h 27.8 km/h 32% 0.0 mm
16:24 34 °C 15 °C 1011.8 hPa NE 11.1 km/h 18.5 km/h 32% 0.0 mm
16:26 34 °C 15 °C 1011.8 hPa ENE 11.1 km/h 22.5 km/h 32% 0.0 mm
17:05 34 °C 14.9 °C 1011.8 hPa Este 11.3 km/h 16.1 km/h 32% 0.0 mm
17:14 33.9 °C 13.9 °C 1011.6 hPa NE 11.6 km/h 27.4 km/h 30% 0.0 mm
17:19 33.6 °C 13.6 °C 1011.6 hPa Este 14.8 km/h 24.1 km/h 30% 0.0 mm
17:24 33.7 °C 13.7 °C 1011.6 hPa NE 14.8 km/h 22.5 km/h 30% 0.0 mm
17:29 33.4 °C 13.4 °C 1011.6 hPa NE 13.7 km/h 24.1 km/h 30% 0.0 mm
17:34 33.6 °C 14.1 °C 1011.5 hPa NE 13.7 km/h 16.7 km/h 31% 0.0 mm
17:39 33.7 °C 13.7 °C 1011.5 hPa NE 14 km/h 18.5 km/h 30% 0.0 mm
17:44 33.7 °C 14.2 °C 1011.5 hPa NE 14 km/h 24.1 km/h 31% 0.0 mm
17:49 33.6 °C 14.1 °C 1011.5 hPa North 14 km/h 24.1 km/h 31% 0.0 mm
17:54 33.4 °C 13.9 °C 1011.5 hPa ENE 14 km/h 20.4 km/h 31% 0.0 mm
17:59 33.6 °C 14.6 °C 1011.5 hPa ENE 14.8 km/h 24.1 km/h 32% 0.0 mm
18:04 33.6 °C 14.1 °C 1011.4 hPa ENE 14.8 km/h 20.4 km/h 31% 0.0 mm
18:09 33.4 °C 13.9 °C 1011.4 hPa North 13 km/h 23.3 km/h 31% 0.0 mm
18:14 33.2 °C 13.8 °C 1011.4 hPa NE 13 km/h 20.4 km/h 31% 0.0 mm
18:19 33.1 °C 14.2 °C 1011.4 hPa NE 16.4 km/h 22.2 km/h 32% 0.0 mm
18:24 33.2 °C 14.8 °C 1011.4 hPa NE 16.4 km/h 18.5 km/h 33% 0.0 mm
18:29 33.3 °C 14.4 °C 1011.4 hPa NE 13 km/h 24.1 km/h 32% 0.0 mm
18:34 33.1 °C 14.2 °C 1011.4 hPa NNE 13 km/h 25.9 km/h 32% 0.0 mm
18:39 32.8 °C 14.9 °C 1011.4 hPa NNE 16.4 km/h 18.5 km/h 34% 0.0 mm
18:44 33 °C 15.1 °C 1011.4 hPa NE 16.4 km/h 18.3 km/h 34% 0.0 mm
18:49 32.9 °C 14.9 °C 1011.4 hPa NE 13 km/h 16.7 km/h 34% 0.0 mm
18:54 32.7 °C 15.2 °C 1011.4 hPa NE 13 km/h 22.2 km/h 35% 0.0 mm
18:59 32.5 °C 15.1 °C 1011.4 hPa NNE 15.6 km/h 27.8 km/h 35% 0.0 mm
19:04 32.4 °C 15 °C 1011.3 hPa ENE 15.6 km/h 27.8 km/h 35% 0.0 mm
19:09 32.3 °C 14.9 °C 1011.3 hPa NNE 16.1 km/h 18.5 km/h 35% 0.0 mm
19:14 32.1 °C 14.7 °C 1011.3 hPa NNE 16.1 km/h 25.9 km/h 35% 0.0 mm
19:19 31.9 °C 14.6 °C 1011.4 hPa ENE 16.4 km/h 22.2 km/h 35% 0.0 mm
19:24 31.9 °C 15 °C 1011.4 hPa NE 16.4 km/h 22.2 km/h 36% 0.0 mm
19:29 31.9 °C 15 °C 1011.4 hPa NE 16.4 km/h 24.1 km/h 36% 0.0 mm
19:34 31.7 °C 15.2 °C 1011.5 hPa North 16.4 km/h 27.8 km/h 37% 0.0 mm
19:39 31.5 °C 15.4 °C 1011.5 hPa Este 17.2 km/h 18.5 km/h 38% 0.0 mm
19:44 31.4 °C 15.4 °C 1011.5 hPa NE 17.2 km/h 24.1 km/h 38% 0.0 mm
19:49 31.1 °C 15.5 °C 1011.5 hPa ENE 16.1 km/h 27.8 km/h 39% 0.0 mm
19:54 31 °C 15.4 °C 1011.5 hPa NE 16.1 km/h 25.9 km/h 39% 0.0 mm
19:59 30.9 °C 15.7 °C 1011.5 hPa NE 16.1 km/h 20.4 km/h 40% 0.0 mm
20:04 30.6 °C 15.8 °C 1011.6 hPa NE 16.1 km/h 24.1 km/h 41% 0.0 mm
20:09 30.3 °C 15.6 °C 1011.6 hPa NE 16.1 km/h 24.1 km/h 41% 0.0 mm
20:14 30.1 °C 15.8 °C 1011.6 hPa NE 16.1 km/h 25.9 km/h 42% 0.0 mm
20:19 29.9 °C 15.6 °C 1011.8 hPa NNE 18 km/h 20.4 km/h 42% 0.0 mm
20:24 29.9 °C 15.6 °C 1011.8 hPa NE 18 km/h 17.2 km/h 42% 0.0 mm
20:29 29.8 °C 15.1 °C 1011.8 hPa NE 14.8 km/h 22.2 km/h 41% 0.0 mm
20:34 29.7 °C 15.1 °C 1011.8 hPa ENE 14.8 km/h 19 km/h 41% 0.0 mm
20:39 29.5 °C 14.9 °C 1011.8 hPa NE 14 km/h 21.7 km/h 41% 0.0 mm
20:44 29.4 °C 14.8 °C 1011.8 hPa NE 14 km/h 16.7 km/h 41% 0.0 mm
20:49 29.2 °C 14.6 °C 1012.0 hPa NE 13.7 km/h 18.5 km/h 41% 0.0 mm
20:54 29.1 °C 14.9 °C 1012.0 hPa NNE 13.7 km/h 20.4 km/h 42% 0.0 mm
20:59 28.9 °C 14.7 °C 1012.0 hPa NNE 13.7 km/h 18.5 km/h 42% 0.0 mm
21:04 28.8 °C 14.6 °C 1012.1 hPa NE 13.7 km/h 18.5 km/h 42% 0.0 mm
21:09 28.6 °C 14.8 °C 1012.1 hPa NNE 12.2 km/h 20.4 km/h 43% 0.0 mm
21:14 28.4 °C 14.9 °C 1012.1 hPa ENE 12.2 km/h 20.4 km/h 44% 0.0 mm
21:19 28.3 °C 15.2 °C 1012.2 hPa NNE 12.2 km/h 19.8 km/h 45% 0.0 mm
21:24 28.2 °C 15.2 °C 1012.2 hPa NE 12.2 km/h 20.4 km/h 45% 0.0 mm
21:29 28 °C 14.9 °C 1012.2 hPa NNE 12.2 km/h 20.4 km/h 45% 0.0 mm
21:34 27.9 °C 14.9 °C 1012.3 hPa NNE 12.2 km/h 16.7 km/h 45% 0.0 mm
21:39 27.8 °C 14.4 °C 1012.3 hPa NE 11.1 km/h 14.8 km/h 44% 0.0 mm
21:44 27.8 °C 14.4 °C 1012.3 hPa ENE 11.1 km/h 16.7 km/h 44% 0.0 mm
21:49 27.7 °C 14.7 °C 1012.3 hPa NNE 10 km/h 13 km/h 45% 0.0 mm
21:54 27.6 °C 14.9 °C 1012.3 hPa NE 10 km/h 16.7 km/h 46% 0.0 mm
21:59 27.4 °C 14.8 °C 1012.3 hPa NNE 10 km/h 14.8 km/h 46% 0.0 mm
22:04 27.3 °C 14.7 °C 1012.5 hPa NE 10 km/h 18.5 km/h 46% 0.0 mm
22:09 27.3 °C 14.7 °C 1012.5 hPa NNE 11.1 km/h 11.1 km/h 46% 0.0 mm
22:14 27.3 °C 14.7 °C 1012.5 hPa NE 11.1 km/h 13 km/h 46% 0.0 mm
22:19 27.2 °C 14.9 °C 1012.8 hPa NNE 10.3 km/h 11.1 km/h 47% 0.0 mm
22:24 27.2 °C 14.9 °C 1012.8 hPa NE 10.3 km/h 11.1 km/h 47% 0.0 mm
22:29 27 °C 15.1 °C 1012.8 hPa NNE 8.4 km/h 9.3 km/h 48% 0.0 mm
22:34 26.8 °C 15.2 °C 1013.0 hPa NE 8.4 km/h 13 km/h 49% 0.0 mm
22:39 26.7 °C 15.4 °C 1013.0 hPa NE 8.7 km/h 11.1 km/h 50% 0.0 mm
22:44 26.6 °C 15.6 °C 1013.0 hPa NE 8.7 km/h 11.1 km/h 51% 0.0 mm
22:49 26.4 °C 15.8 °C 1013.2 hPa NE 8.4 km/h 11.1 km/h 52% 0.0 mm
22:54 26.3 °C 15.7 °C 1013.2 hPa NE 8.4 km/h 13 km/h 52% 0.0 mm
22:59 26.2 °C 15.9 °C 1013.2 hPa NE 8.4 km/h 11.1 km/h 53% 0.0 mm
23:04 26.2 °C 15.9 °C 1013.4 hPa NE 8.4 km/h 13 km/h 53% 0.0 mm
23:09 26.2 °C 15.9 °C 1013.4 hPa NE 8.4 km/h 7.6 km/h 53% 0.0 mm
23:14 26.2 °C 15.9 °C 1013.4 hPa North 8.4 km/h 7.4 km/h 53% 0.0 mm
23:19 26.2 °C 16.2 °C 1013.7 hPa NE 6.4 km/h 9.3 km/h 54% 0.0 mm
23:24 26.2 °C 16.4 °C 1013.7 hPa ENE 6.4 km/h 8.7 km/h 55% 0.0 mm
23:29 26.1 °C 16.3 °C 1013.7 hPa NE 5.8 km/h 9.3 km/h 55% 0.0 mm
23:34 25.9 °C 16.7 °C 1013.6 hPa NE 5.8 km/h 11.1 km/h 57% 0.0 mm
23:39 25.8 °C 16.9 °C 1013.6 hPa NE 8.4 km/h 13 km/h 58% 0.0 mm
23:44 25.7 °C 16.8 °C 1013.6 hPa NE 8.4 km/h 11.1 km/h 58% 0.0 mm
23:49 25.6 °C 16.7 °C 1013.6 hPa NE 9.5 km/h 13 km/h 58% 0.0 mm
23:54 25.6 °C 17 °C 1013.6 hPa ENE 9.5 km/h 13 km/h 59% 0.0 mm
23:59 25.5 °C 16.9 °C 1013.6 hPa NNE 9.5 km/h 14.8 km/h 59% 0.0 mm
Murcia-Puente Tocinos, España
Compliments of Weather Underground - 2.75 mb

La estación de MeteoMurcia.com, publica sus datos en los siguientes proyectos:

Weather Underground PWS IMURCIAP2 Meteoclimatic www.awekas.at

W3Counter
Web Analytics